Time;durP1;ratioP1;P1;durP2;ratioP2;P2;SDS_P1;SDS_P2;PMS_P1;PMS_P2;Temp;Humidity;BMP_temperature;BMP_pressure;BME280_temperature;BME280_humidity;BME280_pressure;Samples;Min_cycle;Max_cycle;Signal;HPM_P1;HPM_P2
2023/06/16 00:02:32;;;;;;;7.97;6.55;;;18.00;90.30;;;;;;5032287;28;20026;-55
2023/06/16 00:05:18;;;;;;;9.35;6.72;;;18.10;90.20;;;;;;5030540;28;20026;-53
2023/06/16 00:08:04;;;;;;;14.13;6.63;;;18.40;89.80;;;;;;5018746;28;20533;-52
2023/06/16 00:10:51;;;;;;;9.52;6.57;;;18.30;89.90;;;;;;5015493;28;20084;-52
2023/06/16 00:13:38;;;;;;;8.55;6.97;;;18.40;89.00;;;;;;5014662;28;20030;-49
2023/06/16 00:16:26;;;;;;;9.02;6.50;;;18.30;88.80;;;;;;5014211;28;20027;-50
2023/06/16 00:19:11;;;;;;;9.93;6.32;;;18.30;89.10;;;;;;5012878;28;20034;-50
2023/06/16 00:21:59;;;;;;;10.07;6.97;;;18.30;88.60;;;;;;5013855;28;20076;-51
2023/06/16 00:24:45;;;;;;;7.18;6.22;;;18.30;88.60;;;;;;5014225;28;20038;-50
2023/06/16 00:27:31;;;;;;;7.80;6.35;;;18.20;88.40;;;;;;5012946;28;20033;-51
2023/06/16 00:30:17;;;;;;;9.90;6.50;;;18.10;88.20;;;;;;5014223;28;20398;-52
2023/06/16 00:33:05;;;;;;;8.82;7.00;;;18.00;87.60;;;;;;5014336;28;20026;-52
2023/06/16 00:35:51;;;;;;;9.27;6.68;;;18.00;88.00;;;;;;5013430;28;20025;-48
2023/06/16 00:38:37;;;;;;;7.13;6.43;;;18.00;87.90;;;;;;5020478;28;20030;-51
2023/06/16 00:41:24;;;;;;;7.57;6.47;;;18.00;87.30;;;;;;5032325;28;20030;-49
2023/06/16 00:44:10;;;;;;;9.30;6.60;;;17.90;87.20;;;;;;5033264;28;20041;-50
2023/06/16 00:46:56;;;;;;;8.05;6.63;;;17.90;87.60;;;;;;5024341;28;20034;-52
2023/06/16 00:49:42;;;;;;;9.88;6.97;;;17.90;88.10;;;;;;5013529;28;20030;-49
2023/06/16 00:52:34;;;;;;;10.57;6.75;;;17.90;87.30;;;;;;5013679;28;20499;-50
2023/06/16 00:55:22;;;;;;;10.30;7.57;;;17.60;88.40;;;;;;5014063;28;20525;-50
2023/06/16 00:58:08;;;;;;;8.13;7.03;;;17.70;88.60;;;;;;5013273;28;20411;-51
2023/06/16 01:00:54;;;;;;;8.43;6.60;;;17.80;88.70;;;;;;5013523;28;20109;-50
2023/06/16 01:03:40;;;;;;;9.88;7.53;;;17.70;88.60;;;;;;5012487;28;20030;-48
2023/06/16 01:06:31;;;;;;;7.65;6.60;;;17.70;88.20;;;;;;5021360;28;20091;-49
2023/06/16 01:09:41;;;;;;;7.57;6.50;;;17.70;88.60;;;;;;5033805;28;20036;-49
2023/06/16 01:13:00;;;;;;;9.10;7.05;;;17.60;88.40;;;;;;5031787;28;20022;-50
2023/06/16 01:15:47;;;;;;;10.07;7.10;;;17.50;87.90;;;;;;5031965;28;20423;-52
2023/06/16 01:18:34;;;;;;;8.52;6.65;;;17.50;88.80;;;;;;5034039;28;20043;-51
2023/06/16 01:21:50;;;;;;;9.25;6.85;;;17.50;88.20;;;;;;5031612;28;20392;-54
2023/06/16 01:24:36;;;;;;;7.38;6.38;;;17.50;88.20;;;;;;5032215;28;20033;-52
2023/06/16 01:27:23;;;;;;;9.35;7.07;;;17.50;88.60;;;;;;5032447;28;20411;-52
2023/06/16 01:30:09;;;;;;;9.85;7.07;;;17.60;88.00;;;;;;5032163;28;20033;-51
2023/06/16 01:32:57;;;;;;;8.75;7.72;;;17.60;88.10;;;;;;5032117;28;20111;-54
2023/06/16 01:35:44;;;;;;;10.15;6.65;;;17.60;87.80;;;;;;5013402;28;20124;-49
2023/06/16 01:38:30;;;;;;;7.07;6.00;;;17.70;87.90;;;;;;5013448;28;20095;-57
2023/06/16 01:41:19;;;;;;;7.90;7.10;;;17.60;88.30;;;;;;5013622;28;20406;-56
2023/06/16 01:44:06;;;;;;;9.40;7.25;;;17.70;87.80;;;;;;5012803;28;20422;-57
2023/06/16 01:46:53;;;;;;;8.75;6.88;;;17.80;87.60;;;;;;5011821;28;20406;-58
2023/06/16 01:49:40;;;;;;;9.20;7.25;;;17.70;87.90;;;;;;5012244;28;20054;-58
2023/06/16 01:52:26;;;;;;;8.70;7.18;;;17.80;88.10;;;;;;5012314;28;20026;-52
2023/06/16 01:55:12;;;;;;;11.52;7.55;;;17.80;88.10;;;;;;5012654;28;20069;-50
2023/06/16 01:57:58;;;;;;;8.32;6.35;;;17.90;88.50;;;;;;5012862;28;20465;-51
2023/06/16 02:00:52;;;;;;;11.35;6.80;;;17.90;87.60;;;;;;5011567;28;20034;-49
2023/06/16 02:03:54;;;;;;;11.23;6.95;;;17.70;88.00;;;;;;5033251;28;20025;-53
2023/06/16 02:07:03;;;;;;;10.82;7.05;;;17.70;87.80;;;;;;5031099;28;20018;-57
2023/06/16 02:09:50;;;;;;;7.80;7.00;;;17.50;88.20;;;;;;5018502;28;20532;-51
2023/06/16 02:12:37;;;;;;;8.77;7.00;;;17.70;88.30;;;;;;5015930;28;20398;-51
2023/06/16 02:15:23;;;;;;;7.85;6.40;;;17.70;87.90;;;;;;5016481;28;20069;-51
2023/06/16 02:18:12;;;;;;;7.90;6.38;;;17.70;88.10;;;;;;5015965;28;20387;-51
2023/06/16 02:20:58;;;;;;;7.38;6.50;;;17.90;88.10;;;;;;5005920;28;20486;-51
2023/06/16 02:23:44;;;;;;;7.72;6.72;;;18.00;87.50;;;;;;5017733;28;20116;-55
2023/06/16 02:26:32;;;;;;;8.98;6.28;;;17.90;88.10;;;;;;5019556;28;20026;-56
2023/06/16 02:29:18;;;;;;;10.52;7.07;;;17.80;88.30;;;;;;5020470;28;20321;-56
2023/06/16 02:32:04;;;;;;;8.77;7.10;;;17.50;89.00;;;;;;5015253;28;20441;-53
2023/06/16 02:34:52;;;;;;;10.43;7.53;;;17.50;89.70;;;;;;5015046;28;20026;-52
2023/06/16 02:37:38;;;;;;;9.00;7.38;;;17.30;90.20;;;;;;5016469;28;20022;-49
2023/06/16 02:40:24;;;;;;;9.95;7.07;;;17.20;90.40;;;;;;5016263;28;20033;-51
2023/06/16 02:43:10;;;;;;;8.25;7.45;;;17.20;90.60;;;;;;5015414;28;20034;-50
2023/06/16 02:45:56;;;;;;;9.30;7.45;;;17.00;90.80;;;;;;5017054;28;20042;-53
2023/06/16 02:48:42;;;;;;;8.52;6.95;;;17.00;90.80;;;;;;5018342;28;20113;-53
2023/06/16 02:51:28;;;;;;;9.52;7.57;;;17.10;90.90;;;;;;5034656;28;20390;-51
2023/06/16 02:54:14;;;;;;;8.02;7.20;;;16.80;91.40;;;;;;5036459;28;20026;-49
2023/06/16 02:57:00;;;;;;;7.20;6.43;;;17.00;91.30;;;;;;5015272;28;20438;-53
2023/06/16 02:59:47;;;;;;;9.15;6.88;;;17.10;91.20;;;;;;5015919;28;20533;-52
2023/06/16 03:02:33;;;;;;;10.82;7.63;;;17.00;91.40;;;;;;5015478;28;20443;-52
2023/06/16 03:05:19;;;;;;;10.18;7.05;;;16.80;91.80;;;;;;5014390;28;20518;-52
2023/06/16 03:08:05;;;;;;;11.65;7.38;;;16.70;91.90;;;;;;5015639;28;20041;-51
2023/06/16 03:10:51;;;;;;;9.95;7.88;;;16.60;92.20;;;;;;5014621;28;20030;-55
2023/06/16 03:13:38;;;;;;;8.60;7.32;;;16.50;92.70;;;;;;5015974;28;20062;-52
2023/06/16 03:16:26;;;;;;;8.35;7.55;;;16.40;92.90;;;;;;5015245;28;20030;-52
2023/06/16 03:19:13;;;;;;;8.50;7.60;;;16.30;93.10;;;;;;5015231;28;20030;-53
2023/06/16 03:22:00;;;;;;;11.32;7.57;;;16.30;93.20;;;;;;5013592;28;20030;-56
2023/06/16 03:24:47;;;;;;;22.83;7.97;;;16.40;93.40;;;;;;5023090;28;20347;-51
2023/06/16 03:27:33;;;;;;;7.80;6.97;;;16.20;93.80;;;;;;5036799;28;20030;-50
2023/06/16 03:30:19;;;;;;;8.32;7.35;;;16.30;93.50;;;;;;5034265;28;20026;-51
2023/06/16 03:33:06;;;;;;;10.65;7.60;;;16.40;93.50;;;;;;5036174;28;20030;-51
2023/06/16 03:35:52;;;;;;;15.48;7.93;;;16.20;93.80;;;;;;5033108;28;20036;-51
2023/06/16 03:38:38;;;;;;;9.63;7.32;;;16.30;93.70;;;;;;5034586;28;20031;-49
2023/06/16 03:41:24;;;;;;;10.95;7.40;;;16.30;93.70;;;;;;5015270;28;20095;-49
2023/06/16 03:44:10;;;;;;;9.27;7.80;;;16.10;93.90;;;;;;5015875;28;20034;-49
2023/06/16 03:46:56;;;;;;;12.80;8.60;;;16.20;94.00;;;;;;5015342;28;20037;-51
2023/06/16 03:49:42;;;;;;;9.40;7.28;;;16.00;94.20;;;;;;5015162;28;20033;-49
2023/06/16 03:52:28;;;;;;;12.85;8.23;;;15.90;94.60;;;;;;5016611;28;20022;-47
2023/06/16 03:55:14;;;;;;;10.32;7.88;;;15.80;94.80;;;;;;5015239;28;20057;-48
2023/06/16 03:58:00;;;;;;;9.73;8.38;;;15.90;94.50;;;;;;5013691;28;20034;-50
2023/06/16 04:00:46;;;;;;;10.48;7.57;;;15.70;94.90;;;;;;5014403;28;20117;-52
2023/06/16 04:03:31;;;;;;;12.15;7.93;;;16.00;95.00;;;;;;5014107;28;20030;-53
2023/06/16 04:06:17;;;;;;;9.88;8.10;;;15.90;94.80;;;;;;5014353;28;20045;-56
2023/06/16 04:09:04;;;;;;;15.50;8.40;;;16.00;94.90;;;;;;5014321;28;20175;-54
2023/06/16 04:11:50;;;;;;;9.48;8.18;;;15.90;95.10;;;;;;5014465;28;20026;-56
2023/06/16 04:14:36;;;;;;;11.32;8.48;;;15.80;95.30;;;;;;5014284;28;20036;-55
2023/06/16 04:17:22;;;;;;;9.65;7.93;;;15.80;95.40;;;;;;5013884;28;20069;-58
2023/06/16 04:20:11;;;;;;;10.85;8.02;;;15.90;95.30;;;;;;5020384;28;20079;-56
2023/06/16 04:22:57;;;;;;;11.48;8.00;;;15.70;95.80;;;;;;5032050;28;20026;-53
2023/06/16 04:25:43;;;;;;;9.90;7.93;;;15.90;95.70;;;;;;5033370;28;20174;-52
2023/06/16 04:28:30;;;;;;;11.98;8.88;;;16.00;95.50;;;;;;5032080;28;20033;-58
2023/06/16 04:31:15;;;;;;;15.88;9.00;;;15.90;95.70;;;;;;5034658;28;20057;-58
2023/06/16 04:34:03;;;;;;;11.20;8.55;;;15.90;95.60;;;;;;5033333;28;20089;-57
2023/06/16 04:36:49;;;;;;;9.73;8.15;;;16.00;95.60;;;;;;5032790;28;20394;-55
2023/06/16 04:39:35;;;;;;;11.27;8.32;;;16.00;95.70;;;;;;5035084;28;20037;-57
2023/06/16 04:42:21;;;;;;;9.77;8.65;;;16.10;95.70;;;;;;5034588;28;20609;-52
2023/06/16 04:45:07;;;;;;;13.88;8.93;;;16.10;95.90;;;;;;5019854;28;20084;-55
2023/06/16 04:47:53;;;;;;;12.00;8.90;;;16.20;95.90;;;;;;5023974;28;20112;-57
2023/06/16 04:50:39;;;;;;;10.60;9.05;;;16.20;95.90;;;;;;5021326;28;20121;-57
2023/06/16 04:53:26;;;;;;;12.57;8.15;;;16.10;95.90;;;;;;5032228;28;20033;-56
2023/06/16 04:56:12;;;;;;;9.93;8.45;;;16.30;95.90;;;;;;5032435;28;20464;-55
2023/06/16 04:58:58;;;;;;;11.25;8.10;;;16.40;95.50;;;;;;5031568;28;20486;-58
2023/06/16 05:01:44;;;;;;;11.23;8.38;;;16.40;95.80;;;;;;5018710;28;20033;-60
2023/06/16 05:04:30;;;;;;;11.40;8.55;;;16.40;96.00;;;;;;5013444;28;20026;-53
2023/06/16 05:07:16;;;;;;;11.38;8.32;;;16.40;95.90;;;;;;5012171;28;20064;-58
2023/06/16 05:10:02;;;;;;;9.68;7.95;;;16.30;96.10;;;;;;5013579;28;20379;-54
2023/06/16 05:12:48;;;;;;;10.90;7.90;;;16.50;95.90;;;;;;5012878;28;20036;-56
2023/06/16 05:15:34;;;;;;;9.93;8.73;;;16.40;96.00;;;;;;5027564;28;20037;-55
2023/06/16 05:18:20;;;;;;;11.70;9.23;;;16.30;96.20;;;;;;5033480;28;20048;-57
2023/06/16 05:21:06;;;;;;;14.68;8.15;;;16.30;96.20;;;;;;5033845;28;20116;-54
2023/06/16 05:23:53;;;;;;;9.88;8.27;;;16.40;96.20;;;;;;5033999;28;20033;-58
2023/06/16 05:26:38;;;;;;;9.60;8.60;;;16.30;96.50;;;;;;5033851;28;20035;-51
2023/06/16 05:29:25;;;;;;;10.95;8.20;;;16.30;96.60;;;;;;5033483;28;20451;-53
2023/06/16 05:32:10;;;;;;;13.73;8.57;;;16.30;96.70;;;;;;5032270;28;20034;-52
2023/06/16 05:34:57;;;;;;;11.90;8.77;;;16.40;96.60;;;;;;5032968;28;20025;-51
2023/06/16 05:37:43;;;;;;;12.90;8.45;;;16.40;96.50;;;;;;5032241;28;20025;-53
2023/06/16 05:40:29;;;;;;;10.73;8.88;;;16.30;96.70;;;;;;5012336;28;20041;-54
2023/06/16 05:43:14;;;;;;;11.68;8.75;;;16.30;96.90;;;;;;5012301;28;20061;-53
2023/06/16 05:46:00;;;;;;;9.85;8.43;;;16.30;97.20;;;;;;5014022;28;20144;-54
2023/06/16 05:48:46;;;;;;;13.18;8.23;;;16.30;97.50;;;;;;5014927;28;20060;-52
2023/06/16 05:51:32;;;;;;;14.35;9.15;;;16.30;97.30;;;;;;5023112;28;20026;-57
2023/06/16 05:54:18;;;;;;;13.20;8.25;;;16.30;97.60;;;;;;5011820;28;20037;-57
2023/06/16 05:57:05;;;;;;;13.88;8.68;;;16.20;97.90;;;;;;5013375;28;20041;-57
2023/06/16 05:59:51;;;;;;;11.35;8.68;;;16.50;97.80;;;;;;5013939;28;20109;-62
2023/06/16 06:02:37;;;;;;;9.32;7.93;;;16.50;97.70;;;;;;5032045;28;20397;-47
2023/06/16 06:05:24;;;;;;;10.57;9.10;;;16.60;97.70;;;;;;5025572;28;20095;-49
2023/06/16 06:08:10;;;;;;;14.27;8.43;;;16.60;97.80;;;;;;5020313;28;20524;-53
2023/06/16 06:10:56;;;;;;;10.80;8.13;;;16.70;97.90;;;;;;5027463;28;20020;-49
2023/06/16 06:13:42;;;;;;;10.68;8.52;;;16.70;98.00;;;;;;5024077;28;20388;-51
2023/06/16 06:16:28;;;;;;;13.52;9.02;;;16.90;97.90;;;;;;5017213;28;20038;-52
2023/06/16 06:19:14;;;;;;;10.68;7.72;;;16.90;97.70;;;;;;5026459;28;20452;-53
2023/06/16 06:21:59;;;;;;;11.15;8.52;;;16.80;97.90;;;;;;5013448;28;20048;-48
2023/06/16 06:24:45;;;;;;;9.05;7.97;;;16.60;98.30;;;;;;5013091;28;20050;-49
2023/06/16 06:27:31;;;;;;;11.70;8.38;;;16.60;98.20;;;;;;5013300;28;20034;-50
2023/06/16 06:30:17;;;;;;;11.57;8.55;;;16.60;98.20;;;;;;5018042;28;20034;-49
2023/06/16 06:33:03;;;;;;;7.85;7.05;;;16.50;98.30;;;;;;5025280;28;20030;-51
2023/06/16 06:35:49;;;;;;;13.27;8.43;;;16.60;98.40;;;;;;5026173;28;20073;-50
2023/06/16 06:38:36;;;;;;;12.68;8.50;;;16.60;98.10;;;;;;5022634;28;20621;-50
2023/06/16 06:41:23;;;;;;;9.65;8.00;;;16.50;98.20;;;;;;5027627;28;20025;-50
2023/06/16 06:44:08;;;;;;;9.68;8.00;;;16.60;98.30;;;;;;5025494;28;20046;-52
2023/06/16 06:46:55;;;;;;;8.98;7.70;;;16.60;98.30;;;;;;5033932;28;20021;-52
2023/06/16 06:49:41;;;;;;;8.30;7.45;;;16.70;98.20;;;;;;5039191;28;20026;-54
2023/06/16 06:52:27;;;;;;;8.98;7.07;;;16.80;98.30;;;;;;5024182;28;20044;-54
2023/06/16 06:55:13;;;;;;;8.90;7.35;;;16.70;98.60;;;;;;5030967;28;20048;-53
2023/06/16 06:57:59;;;;;;;7.63;6.82;;;16.60;99.10;;;;;;5034314;28;20033;-52
2023/06/16 07:00:45;;;;;;;9.60;7.55;;;16.40;99.90;;;;;;5028818;28;20034;-53
2023/06/16 07:03:31;;;;;;;10.25;7.50;;;16.40;99.90;;;;;;5018589;28;20033;-50
2023/06/16 07:06:17;;;;;;;9.18;7.57;;;16.40;99.90;;;;;;5025479;28;20053;-51
2023/06/16 07:09:03;;;;;;;7.80;6.65;;;16.40;99.90;;;;;;5029625;28;20021;-49
2023/06/16 07:11:49;;;;;;;8.30;7.03;;;16.40;99.90;;;;;;5029075;28;20029;-51
2023/06/16 07:14:35;;;;;;;9.10;7.35;;;16.40;99.90;;;;;;5030148;28;20669;-49
2023/06/16 07:17:21;;;;;;;10.10;7.22;;;16.30;99.90;;;;;;5026259;28;20054;-50
2023/06/16 07:20:08;;;;;;;10.07;8.07;;;16.30;99.90;;;;;;5026957;28;20041;-50
2023/06/16 07:22:54;;;;;;;8.68;7.45;;;16.40;99.90;;;;;;5026913;28;20026;-51
2023/06/16 07:25:39;;;;;;;8.52;6.93;;;16.30;99.90;;;;;;5024007;28;20111;-52
2023/06/16 07:28:25;;;;;;;8.30;7.50;;;16.30;99.90;;;;;;5022892;28;20033;-48
2023/06/16 07:31:11;;;;;;;9.82;7.68;;;16.20;99.90;;;;;;5025132;28;20151;-50
2023/06/16 07:33:57;;;;;;;9.00;7.30;;;16.30;99.90;;;;;;5031156;28;20017;-47
2023/06/16 07:36:43;;;;;;;12.15;8.00;;;16.20;99.90;;;;;;5028165;28;20025;-55
2023/06/16 07:39:29;;;;;;;8.52;7.13;;;16.10;99.90;;;;;;5026613;28;20042;-50
2023/06/16 07:42:16;;;;;;;10.90;7.00;;;16.20;99.90;;;;;;5028444;28;20061;-47
2023/06/16 07:45:02;;;;;;;8.20;7.40;;;16.30;99.90;;;;;;5031195;28;20037;-51
2023/06/16 07:47:48;;;;;;;10.00;8.23;;;16.20;99.90;;;;;;5029092;28;20037;-50
2023/06/16 07:50:34;;;;;;;10.25;7.78;;;16.30;99.90;;;;;;5024662;28;20026;-49
2023/06/16 07:53:20;;;;;;;8.65;7.50;;;16.30;99.90;;;;;;5025769;28;20084;-50
2023/06/16 07:56:06;;;;;;;8.30;7.50;;;16.40;99.90;;;;;;5029042;28;20040;-49
2023/06/16 07:58:52;;;;;;;8.00;7.18;;;16.20;99.90;;;;;;5028328;28;20033;-49
2023/06/16 08:01:38;;;;;;;8.50;6.80;;;16.30;99.90;;;;;;5025368;28;20033;-50
2023/06/16 08:04:29;;;;;;;8.15;7.35;;;16.20;99.90;;;;;;5025484;28;20049;-49
2023/06/16 08:07:15;;;;;;;8.45;7.32;;;16.30;99.90;;;;;;5020443;28;20084;-50
2023/06/16 08:10:03;;;;;;;8.80;6.38;;;16.30;99.90;;;;;;5019298;28;20061;-53
2023/06/16 08:12:49;;;;;;;8.30;7.05;;;16.40;99.90;;;;;;5029650;28;20030;-48
2023/06/16 08:15:35;;;;;;;9.45;7.20;;;16.30;99.90;;;;;;5013473;28;20040;-49
2023/06/16 08:18:21;;;;;;;9.05;7.15;;;16.20;99.90;;;;;;5033443;28;20030;-48
2023/06/16 08:21:07;;;;;;;8.70;6.07;;;16.30;99.90;;;;;;5029760;28;20474;-47
2023/06/16 08:23:53;;;;;;;7.85;7.05;;;16.50;99.90;;;;;;5033156;28;20409;-51
2023/06/16 08:26:39;;;;;;;9.25;7.05;;;16.50;99.90;;;;;;5031307;28;20470;-51
2023/06/16 08:29:25;;;;;;;10.93;7.20;;;16.50;99.90;;;;;;5028677;28;20026;-50
2023/06/16 08:32:11;;;;;;;9.82;7.10;;;16.60;99.90;;;;;;5016823;28;20045;-49
2023/06/16 08:34:57;;;;;;;7.97;6.70;;;16.70;99.90;;;;;;5032733;28;20442;-50
2023/06/16 08:37:43;;;;;;;8.10;6.45;;;16.70;99.90;;;;;;5032463;28;20038;-49
2023/06/16 08:40:30;;;;;;;8.13;6.78;;;16.70;99.90;;;;;;5032214;28;20029;-49
2023/06/16 08:43:17;;;;;;;8.73;6.93;;;16.70;99.90;;;;;;5031971;28;20029;-49
2023/06/16 08:46:08;;;;;;;7.30;6.50;;;16.60;99.90;;;;;;5031471;28;20026;-50
2023/06/16 08:48:54;;;;;;;9.70;6.63;;;16.70;99.90;;;;;;5033685;28;20033;-49
2023/06/16 08:51:48;;;;;;;9.50;6.90;;;16.60;99.90;;;;;;5031652;28;20029;-50
2023/06/16 08:54:38;;;;;;;8.98;6.75;;;16.60;99.90;;;;;;5014261;28;20376;-50
2023/06/16 08:57:26;;;;;;;8.57;6.80;;;16.50;99.90;;;;;;5012074;28;20052;-51
2023/06/16 09:00:14;;;;;;;9.00;6.95;;;16.60;99.90;;;;;;5012431;28;20040;-50
2023/06/16 09:03:00;;;;;;;7.68;6.88;;;16.60;99.90;;;;;;5013740;28;20053;-49
2023/06/16 09:05:46;;;;;;;6.57;5.97;;;16.40;99.90;;;;;;5015698;28;20466;-53
2023/06/16 09:08:32;;;;;;;9.20;6.82;;;16.30;99.90;;;;;;5015300;28;20454;-50
2023/06/16 09:11:25;;;;;;;8.63;6.90;;;16.40;99.90;;;;;;5014272;28;20099;-50
2023/06/16 09:14:13;;;;;;;7.95;7.13;;;16.40;99.90;;;;;;5024990;28;20422;-54
2023/06/16 09:17:04;;;;;;;7.55;6.75;;;16.60;99.90;;;;;;5016526;28;20038;-52
2023/06/16 09:19:52;;;;;;;6.82;6.00;;;16.70;99.90;;;;;;5023393;28;20030;-50
2023/06/16 09:22:39;;;;;;;7.70;6.40;;;16.80;99.90;;;;;;5031764;28;20079;-50
2023/06/16 09:25:25;;;;;;;7.63;6.05;;;16.90;99.90;;;;;;5031139;28;20034;-52
2023/06/16 09:28:11;;;;;;;9.40;6.68;;;16.80;99.90;;;;;;5030893;28;20367;-48
2023/06/16 09:31:06;;;;;;;9.32;6.75;;;16.90;99.90;;;;;;5013679;28;20029;-48
2023/06/16 09:33:51;;;;;;;10.93;6.85;;;16.80;99.90;;;;;;5017189;28;20033;-52
2023/06/16 09:36:37;;;;;;;11.23;6.65;;;16.90;99.90;;;;;;5029003;28;20032;-51
2023/06/16 09:39:25;;;;;;;7.43;6.60;;;17.00;99.90;;;;;;5011832;28;20034;-52
2023/06/16 09:42:11;;;;;;;10.18;6.28;;;17.20;99.90;;;;;;5022259;28;20026;-52
2023/06/16 09:44:58;;;;;;;8.15;6.63;;;17.30;99.90;;;;;;5015058;28;20147;-55
2023/06/16 09:47:45;;;;;;;6.90;6.22;;;17.30;99.90;;;;;;5016054;28;20029;-52
2023/06/16 09:50:32;;;;;;;10.73;6.43;;;17.30;99.90;;;;;;5030155;28;20054;-49
2023/06/16 09:53:22;;;;;;;7.72;6.07;;;17.40;99.90;;;;;;5032534;28;20033;-54
2023/06/16 09:56:08;;;;;;;7.15;6.47;;;17.40;99.90;;;;;;5031691;28;20029;-56
2023/06/16 09:58:54;;;;;;;7.50;6.13;;;17.50;99.90;;;;;;5030915;28;20449;-54
2023/06/16 10:01:43;;;;;;;7.57;6.03;;;17.60;99.90;;;;;;5035004;28;20494;-53
2023/06/16 10:04:31;;;;;;;7.68;6.05;;;17.70;99.90;;;;;;5019514;28;20048;-56
2023/06/16 10:07:18;;;;;;;6.68;5.97;;;17.70;99.90;;;;;;5016625;28;20493;-54
2023/06/16 10:10:11;;;;;;;7.00;6.20;;;17.60;99.90;;;;;;5016070;28;20030;-52
2023/06/16 10:12:59;;;;;;;7.68;5.93;;;17.70;99.90;;;;;;5016067;28;20029;-54
2023/06/16 10:15:48;;;;;;;6.28;5.68;;;17.70;99.90;;;;;;5028758;28;20026;-52
2023/06/16 10:18:35;;;;;;;7.10;5.93;;;17.60;99.90;;;;;;5030441;28;20041;-56
2023/06/16 10:21:23;;;;;;;6.68;5.97;;;17.60;99.90;;;;;;5019161;28;20038;-51
2023/06/16 10:24:09;;;;;;;8.30;5.70;;;17.60;99.90;;;;;;5013096;28;20037;-51
2023/06/16 10:26:56;;;;;;;7.22;5.43;;;17.50;99.90;;;;;;5012992;28;20046;-55
2023/06/16 10:29:46;;;;;;;7.13;5.93;;;17.50;99.90;;;;;;5027091;28;20053;-51
2023/06/16 10:32:32;;;;;;;9.00;6.70;;;17.60;99.90;;;;;;5040571;28;20521;-56
2023/06/16 10:35:20;;;;;;;7.15;5.70;;;17.80;99.90;;;;;;5045774;28;20036;-51
2023/06/16 10:38:06;;;;;;;6.85;5.72;;;17.80;99.90;;;;;;5034753;28;20057;-53
2023/06/16 10:40:56;;;;;;;7.03;5.82;;;17.80;99.90;;;;;;5035606;28;20036;-51
2023/06/16 10:43:42;;;;;;;6.60;6.00;;;17.90;99.90;;;;;;5036171;28;20036;-55
2023/06/16 10:46:28;;;;;;;7.15;5.93;;;18.00;99.90;;;;;;5036464;28;20033;-53
2023/06/16 10:49:20;;;;;;;9.07;6.30;;;18.10;99.90;;;;;;5029215;28;20494;-51
2023/06/16 10:52:05;;;;;;;9.70;6.07;;;18.10;99.90;;;;;;5013804;28;20046;-51
2023/06/16 10:54:52;;;;;;;6.90;6.20;;;18.30;99.90;;;;;;5014889;28;20046;-55
2023/06/16 10:57:41;;;;;;;8.15;6.72;;;18.40;99.90;;;;;;5033839;28;20033;-54
2023/06/16 11:00:27;;;;;;;8.75;6.45;;;18.50;99.90;;;;;;5035253;28;20446;-54
2023/06/16 11:03:13;;;;;;;8.23;6.88;;;18.50;99.90;;;;;;5034771;28;20030;-51
2023/06/16 11:06:01;;;;;;;8.18;6.13;;;18.50;99.90;;;;;;5040265;28;20037;-57
2023/06/16 11:08:55;;;;;;;8.95;6.50;;;18.60;99.90;;;;;;5030016;28;20078;-53
2023/06/16 11:11:41;;;;;;;8.17;6.23;;;18.60;99.90;;;;;;5022889;28;20037;-54
2023/06/16 11:14:28;;;;;;;8.60;6.05;;;18.50;99.90;;;;;;5014627;28;20485;-52
2023/06/16 11:17:16;;;;;;;6.20;5.60;;;18.50;99.90;;;;;;5018120;28;20486;-54
2023/06/16 11:20:06;;;;;;;8.00;6.22;;;18.50;99.90;;;;;;5024324;28;20045;-50
2023/06/16 11:22:52;;;;;;;6.47;5.78;;;18.40;99.90;;;;;;5015746;28;20530;-53
2023/06/16 11:25:38;;;;;;;7.57;6.22;;;18.50;99.90;;;;;;5018170;28;20399;-52
2023/06/16 11:28:24;;;;;;;6.10;5.50;;;18.50;99.90;;;;;;5020744;28;20053;-52
2023/06/16 11:31:12;;;;;;;6.90;5.72;;;18.60;99.90;;;;;;5020186;28;20026;-54
2023/06/16 11:33:59;;;;;;;10.05;5.70;;;18.60;99.90;;;;;;5022268;28;20540;-56
2023/06/16 11:36:47;;;;;;;6.13;5.53;;;18.30;99.90;;;;;;5023201;28;20033;-57
2023/06/16 11:39:45;;;;;;;6.30;5.35;;;18.20;99.90;;;;;;5019832;28;20021;-57
2023/06/16 11:42:33;;;;;;;6.60;5.57;;;18.40;99.90;;;;;;5016732;28;20104;-58
2023/06/16 11:45:19;;;;;;;6.28;5.53;;;18.60;99.90;;;;;;5023736;28;20036;-58
2023/06/16 11:48:07;;;;;;;6.65;5.88;;;18.50;99.90;;;;;;5016420;28;20535;-57
2023/06/16 11:50:54;;;;;;;9.40;6.45;;;18.60;99.90;;;;;;5024130;28;20387;-55
2023/06/16 11:53:40;;;;;;;6.35;5.68;;;18.80;99.90;;;;;;5031632;28;20030;-54
2023/06/16 11:56:27;;;;;;;6.82;5.70;;;18.80;99.90;;;;;;5018262;28;20435;-58
2023/06/16 11:59:13;;;;;;;8.80;6.80;;;18.70;99.90;;;;;;5029434;28;20022;-57
2023/06/16 12:02:03;;;;;;;7.43;6.53;;;19.00;99.90;;;;;;5017454;28;20057;-56
2023/06/16 12:04:49;;;;;;;7.38;6.30;;;18.90;99.90;;;;;;5022884;28;20026;-56
2023/06/16 12:07:36;;;;;;;6.85;6.10;;;18.70;99.90;;;;;;5021222;28;20029;-58
2023/06/16 12:10:25;;;;;;;5.95;5.43;;;18.70;99.90;;;;;;5015824;28;20029;-56
2023/06/16 12:13:11;;;;;;;7.40;4.90;;;18.70;99.90;;;;;;5020784;28;20024;-54
2023/06/16 12:15:57;;;;;;;6.68;4.97;;;18.60;99.90;;;;;;5016682;28;20468;-56
2023/06/16 12:18:43;;;;;;;7.57;5.18;;;18.60;99.90;;;;;;5017441;28;20042;-54
2023/06/16 12:21:30;;;;;;;6.82;5.13;;;18.70;99.90;;;;;;5019243;28;20037;-56
2023/06/16 12:24:20;;;;;;;6.35;4.70;;;18.90;99.90;;;;;;5016906;28;20034;-57
2023/06/16 12:27:06;;;;;;;5.32;4.38;;;18.90;99.90;;;;;;5015949;28;20553;-58
2023/06/16 12:29:59;;;;;;;5.70;4.95;;;19.10;99.90;;;;;;5015260;28;20026;-54
2023/06/16 12:32:45;;;;;;;5.22;4.55;;;19.20;99.90;;;;;;5040388;28;20036;-55
2023/06/16 12:35:34;;;;;;;5.63;4.35;;;19.30;99.90;;;;;;5013868;28;20119;-56
2023/06/16 12:38:31;;;;;;;5.13;4.45;;;19.00;99.50;;;;;;5021049;28;20022;-56
2023/06/16 12:41:17;;;;;;;6.72;4.88;;;18.80;99.90;;;;;;5022085;28;20025;-57
2023/06/16 12:44:03;;;;;;;5.60;5.00;;;18.80;99.90;;;;;;5018074;28;20040;-58
2023/06/16 12:46:52;;;;;;;6.43;5.15;;;18.60;99.90;;;;;;5014482;28;20026;-57
2023/06/16 12:49:38;;;;;;;5.85;5.00;;;18.60;99.90;;;;;;5012288;28;20026;-54
2023/06/16 12:52:26;;;;;;;6.00;4.80;;;18.80;99.90;;;;;;5013662;28;20030;-57
2023/06/16 12:55:12;;;;;;;6.80;4.63;;;18.90;99.90;;;;;;5011349;28;20407;-56
2023/06/16 12:57:58;;;;;;;4.85;4.45;;;19.00;99.90;;;;;;5014468;28;20026;-57
2023/06/16 13:00:44;;;;;;;6.30;4.97;;;19.20;99.90;;;;;;5023623;28;20440;-58
2023/06/16 13:03:30;;;;;;;5.32;4.80;;;19.20;99.90;;;;;;5014137;28;20030;-57
2023/06/16 13:06:18;;;;;;;5.90;5.30;;;19.50;99.80;;;;;;5024976;28;20026;-57
2023/06/16 13:09:04;;;;;;;5.68;5.03;;;19.50;99.90;;;;;;5017279;28;20402;-56
2023/06/16 13:11:53;;;;;;;6.07;5.22;;;19.50;99.90;;;;;;5025396;28;20022;-58
2023/06/16 13:14:39;;;;;;;8.73;5.43;;;19.50;99.90;;;;;;5014368;28;21539;-57
2023/06/16 13:17:25;;;;;;;4.78;4.28;;;19.90;99.90;;;;;;5015106;28;20204;-58
2023/06/16 13:20:12;;;;;;;5.15;4.65;;;20.10;99.60;;;;;;5016563;28;20100;-58
2023/06/16 13:22:57;;;;;;;6.05;4.25;;;20.10;98.50;;;;;;5014425;28;20056;-56
2023/06/16 13:25:44;;;;;;;6.35;4.60;;;19.80;97.80;;;;;;5027168;28;20030;-55
2023/06/16 13:28:29;;;;;;;5.45;4.55;;;19.90;98.00;;;;;;5013314;28;20037;-55
2023/06/16 13:31:15;;;;;;;5.97;4.65;;;20.10;97.90;;;;;;5018179;28;20104;-56
2023/06/16 13:34:02;;;;;;;7.53;4.35;;;19.90;97.40;;;;;;5012089;28;20022;-56
2023/06/16 13:36:48;;;;;;;7.00;4.85;;;19.80;97.70;;;;;;5023203;28;20059;-57
2023/06/16 13:39:34;;;;;;;7.30;4.72;;;19.60;98.10;;;;;;5016117;28;20034;-56
2023/06/16 13:42:20;;;;;;;6.07;5.25;;;19.70;98.00;;;;;;5020557;28;20019;-57
2023/06/16 13:45:06;;;;;;;5.50;5.00;;;19.60;98.70;;;;;;5013137;28;20041;-56
2023/06/16 13:47:52;;;;;;;8.30;5.10;;;19.60;98.80;;;;;;5022571;28;20040;-56
2023/06/16 13:50:38;;;;;;;5.25;4.75;;;19.60;98.80;;;;;;5021963;28;20018;-57
2023/06/16 13:53:26;;;;;;;5.22;4.72;;;19.60;98.80;;;;;;5013783;28;20109;-57
2023/06/16 13:56:12;;;;;;;6.07;5.50;;;19.60;99.10;;;;;;5012834;28;20374;-57
2023/06/16 13:58:59;;;;;;;5.60;5.00;;;19.80;99.00;;;;;;5012552;28;20030;-56
2023/06/16 14:01:45;;;;;;;6.85;5.45;;;19.90;98.90;;;;;;5011239;28;20030;-56
2023/06/16 14:04:31;;;;;;;8.00;5.40;;;19.90;98.20;;;;;;5012543;28;20034;-55
2023/06/16 14:07:17;;;;;;;5.80;5.00;;;19.90;98.30;;;;;;5016064;28;20022;-58
2023/06/16 14:10:03;;;;;;;6.65;5.07;;;19.90;98.00;;;;;;5017484;28;20058;-56
2023/06/16 14:12:49;;;;;;;5.70;5.07;;;20.00;97.10;;;;;;5035293;28;20029;-58
2023/06/16 14:15:35;;;;;;;6.28;5.18;;;20.30;97.20;;;;;;5036464;28;20045;-58
2023/06/16 14:18:21;;;;;;;7.22;5.25;;;20.60;96.90;;;;;;5029731;28;20044;-58
2023/06/16 14:21:08;;;;;;;7.25;5.28;;;20.70;96.70;;;;;;5027453;28;20025;-58
2023/06/16 14:23:54;;;;;;;6.75;4.75;;;20.80;96.30;;;;;;5026686;28;20037;-57
2023/06/16 14:26:40;;;;;;;6.45;5.30;;;21.20;95.50;;;;;;5028995;28;20041;-59